Aviation Digital Data Service (ADDS)

Output produced by METARs form (0421 UTC 17 April 2014)
found at http://aviationweather.gov/adds/metars/
 
KCKB 170226Z 1702/1724 04006KT P6SM SKC 
     FM171100 00000KT P6SM SKC 
     FM171400 09004KT P6SM SKC